Aérodrome :







RETROUVEZ-NOUS SUR...

 
LOGIN :

S'inscrire | Disclaimer

   EN    FR    IT 

 









Légende :    VFR   VFR Marginal   IFR   IFR Intensif   IFR Très Intensif
Visi : 
Plafond : 
>= 8 km
>= 3000ft
5 à 8 km
1000 à 3000 ft
1500m à 5 km
500 à 1000 ft
800 à 1500m
200 à 500 ft
< 800m
< 200 ft
Symboles :   Orages  Brouillard  Fortes neiges  Fortes précipitations  Vent > 20 kt






- Altitude de l'aérodrome : 522 ft
- Code IATA : YBG


CYBG - CFB Bagotville

DERNIER METAR :
  • 191300Z 29011KT 20SM BKN030 05/01 A2993 RMK SC7 VIRGA SLP141

METARs EXPIRÉS :
  • 191200Z 29012G17KT 25SM BKN028 05/01 A2991 RMK SC7 SLP136
  • 191100Z 29011KT 25SM OVC030 05/01 A2990 RMK SC8 SLP131

TAF TAF CYBG
Valide du 19 à 12h jusqu'au 20 à 12h UTC


191130Z 1912/2012 29012KT P6SM OVC030
BECMG 1912/1914 28012G22KT BKN030
FM191800 29012KT P6SM BKN030
BECMG 1921/1923 27005KT
FM200200 VRB03KT P6SM SCT020 RMK NXT FCST BY 191800Z



MET'MAP, la Météo Aéronautique d'un coup d'oeil ! - Copyright ORBIFLY Décembre 2007 - Disclaimer

ORBIFLY MET'MAP TEAM :

Programmation & Développement : Alexandra Zaïnal
Conception & Développement : Baudouin d'Aumeries
Co-Programmation & Développement : Marc-Olivier Méhu
Soutien technique & logistique : Manuel Goepfert

Contact : metmap@orbifly.com




SOURCES & CREDITS :

   NOAA